sensor_id;sensor_type;location;lat;lon;timestamp;P1;durP1;ratioP1;P2;durP2;ratioP2
67757;SDS011;54562;47.620;18.786;2023-02-01T00:01:16;6.10;;;3.00;;
67757;SDS011;54562;47.620;18.786;2023-02-01T00:04:22;6.40;;;3.10;;
67757;SDS011;54562;47.620;18.786;2023-02-01T00:07:27;8.10;;;3.30;;
67757;SDS011;54562;47.620;18.786;2023-02-01T00:10:32;6.00;;;3.10;;
67757;SDS011;54562;47.620;18.786;2023-02-01T00:13:38;6.50;;;3.40;;
67757;SDS011;54562;47.620;18.786;2023-02-01T00:16:44;6.30;;;3.20;;
67757;SDS011;54562;47.620;18.786;2023-02-01T00:19:49;6.80;;;2.90;;
67757;SDS011;54562;47.620;18.786;2023-02-01T00:22:54;6.00;;;3.10;;
67757;SDS011;54562;47.620;18.786;2023-02-01T00:26:01;7.10;;;3.30;;
67757;SDS011;54562;47.620;18.786;2023-02-01T00:29:10;6.10;;;3.10;;
67757;SDS011;54562;47.620;18.786;2023-02-01T00:32:17;6.20;;;3.50;;
67757;SDS011;54562;47.620;18.786;2023-02-01T00:35:22;7.00;;;3.10;;
67757;SDS011;54562;47.620;18.786;2023-02-01T00:38:27;5.90;;;3.10;;
67757;SDS011;54562;47.620;18.786;2023-02-01T00:41:34;5.70;;;3.20;;
67757;SDS011;54562;47.620;18.786;2023-02-01T00:44:39;6.00;;;3.10;;
67757;SDS011;54562;47.620;18.786;2023-02-01T00:47:44;6.40;;;3.20;;
67757;SDS011;54562;47.620;18.786;2023-02-01T00:50:49;6.80;;;3.30;;
67757;SDS011;54562;47.620;18.786;2023-02-01T00:53:54;6.80;;;3.00;;
67757;SDS011;54562;47.620;18.786;2023-02-01T00:57:00;7.30;;;3.60;;
67757;SDS011;54562;47.620;18.786;2023-02-01T01:00:07;7.40;;;3.10;;
67757;SDS011;54562;47.620;18.786;2023-02-01T01:03:14;7.80;;;3.60;;
67757;SDS011;54562;47.620;18.786;2023-02-01T01:06:24;6.80;;;3.00;;
67757;SDS011;54562;47.620;18.786;2023-02-01T01:09:32;6.40;;;3.10;;
67757;SDS011;54562;47.620;18.786;2023-02-01T01:12:37;5.60;;;3.00;;
67757;SDS011;54562;47.620;18.786;2023-02-01T01:15:42;7.40;;;3.10;;
67757;SDS011;54562;47.620;18.786;2023-02-01T01:18:48;9.60;;;3.70;;
67757;SDS011;54562;47.620;18.786;2023-02-01T01:21:53;6.00;;;2.80;;
67757;SDS011;54562;47.620;18.786;2023-02-01T01:24:58;5.50;;;3.10;;
67757;SDS011;54562;47.620;18.786;2023-02-01T01:28:03;5.80;;;3.00;;
67757;SDS011;54562;47.620;18.786;2023-02-01T01:31:10;6.40;;;2.90;;
67757;SDS011;54562;47.620;18.786;2023-02-01T01:34:16;6.00;;;2.90;;
67757;SDS011;54562;47.620;18.786;2023-02-01T01:37:21;6.60;;;3.50;;
67757;SDS011;54562;47.620;18.786;2023-02-01T01:40:26;6.20;;;3.20;;
67757;SDS011;54562;47.620;18.786;2023-02-01T01:43:48;6.50;;;3.40;;
67757;SDS011;54562;47.620;18.786;2023-02-01T01:46:55;5.80;;;3.30;;
67757;SDS011;54562;47.620;18.786;2023-02-01T01:50:01;5.90;;;3.10;;
67757;SDS011;54562;47.620;18.786;2023-02-01T01:53:10;6.60;;;3.40;;
67757;SDS011;54562;47.620;18.786;2023-02-01T01:56:17;6.10;;;3.40;;
67757;SDS011;54562;47.620;18.786;2023-02-01T01:59:24;7.50;;;3.20;;
67757;SDS011;54562;47.620;18.786;2023-02-01T02:02:29;6.40;;;3.20;;
67757;SDS011;54562;47.620;18.786;2023-02-01T02:05:34;5.70;;;3.00;;
67757;SDS011;54562;47.620;18.786;2023-02-01T02:08:40;6.00;;;3.20;;
67757;SDS011;54562;47.620;18.786;2023-02-01T02:11:45;6.30;;;2.90;;
67757;SDS011;54562;47.620;18.786;2023-02-01T02:14:50;5.50;;;3.20;;
67757;SDS011;54562;47.620;18.786;2023-02-01T02:18:00;5.60;;;3.20;;
67757;SDS011;54562;47.620;18.786;2023-02-01T02:21:18;5.10;;;2.80;;
67757;SDS011;54562;47.620;18.786;2023-02-01T02:28:51;6.40;;;2.80;;
67757;SDS011;54562;47.620;18.786;2023-02-01T02:36:38;6.70;;;3.40;;
67757;SDS011;54562;47.620;18.786;2023-02-01T02:39:53;5.40;;;3.00;;
67757;SDS011;54562;47.620;18.786;2023-02-01T02:43:10;6.50;;;3.30;;
67757;SDS011;54562;47.620;18.786;2023-02-01T02:46:44;6.00;;;2.80;;
67757;SDS011;54562;47.620;18.786;2023-02-01T02:50:19;6.00;;;3.20;;
67757;SDS011;54562;47.620;18.786;2023-02-01T02:53:51;5.90;;;3.10;;
67757;SDS011;54562;47.620;18.786;2023-02-01T02:57:27;5.50;;;3.10;;
67757;SDS011;54562;47.620;18.786;2023-02-01T03:00:56;5.50;;;3.00;;
67757;SDS011;54562;47.620;18.786;2023-02-01T03:04:20;6.50;;;3.40;;
67757;SDS011;54562;47.620;18.786;2023-02-01T03:07:55;5.70;;;2.90;;
67757;SDS011;54562;47.620;18.786;2023-02-01T03:11:07;5.50;;;3.20;;
67757;SDS011;54562;47.620;18.786;2023-02-01T03:14:15;5.50;;;2.70;;
67757;SDS011;54562;47.620;18.786;2023-02-01T03:17:30;6.10;;;3.40;;
67757;SDS011;54562;47.620;18.786;2023-02-01T03:20:45;6.50;;;3.40;;
67757;SDS011;54562;47.620;18.786;2023-02-01T03:24:00;5.80;;;3.10;;
67757;SDS011;54562;47.620;18.786;2023-02-01T03:27:13;5.10;;;2.90;;
67757;SDS011;54562;47.620;18.786;2023-02-01T03:30:28;5.50;;;2.90;;
67757;SDS011;54562;47.620;18.786;2023-02-01T03:33:36;5.90;;;2.80;;
67757;SDS011;54562;47.620;18.786;2023-02-01T03:36:43;5.60;;;2.80;;
67757;SDS011;54562;47.620;18.786;2023-02-01T03:39:57;6.20;;;3.10;;
67757;SDS011;54562;47.620;18.786;2023-02-01T03:43:06;5.80;;;3.10;;
67757;SDS011;54562;47.620;18.786;2023-02-01T03:46:20;5.50;;;3.10;;
67757;SDS011;54562;47.620;18.786;2023-02-01T03:49:32;5.50;;;3.00;;
67757;SDS011;54562;47.620;18.786;2023-02-01T03:52:41;5.70;;;3.00;;
67757;SDS011;54562;47.620;18.786;2023-02-01T03:55:49;5.20;;;2.80;;
67757;SDS011;54562;47.620;18.786;2023-02-01T03:58:56;5.80;;;3.00;;
67757;SDS011;54562;47.620;18.786;2023-02-01T04:02:04;4.40;;;2.30;;
67757;SDS011;54562;47.620;18.786;2023-02-01T04:05:09;5.50;;;2.90;;
67757;SDS011;54562;47.620;18.786;2023-02-01T04:08:15;5.00;;;3.00;;
67757;SDS011;54562;47.620;18.786;2023-02-01T04:11:21;5.80;;;3.20;;
67757;SDS011;54562;47.620;18.786;2023-02-01T04:14:26;4.20;;;2.20;;
67757;SDS011;54562;47.620;18.786;2023-02-01T04:17:31;6.10;;;3.20;;
67757;SDS011;54562;47.620;18.786;2023-02-01T04:20:36;4.60;;;2.60;;
67757;SDS011;54562;47.620;18.786;2023-02-01T04:23:42;6.10;;;3.00;;
67757;SDS011;54562;47.620;18.786;2023-02-01T04:26:48;6.60;;;3.10;;
67757;SDS011;54562;47.620;18.786;2023-02-01T04:29:53;7.60;;;3.30;;
67757;SDS011;54562;47.620;18.786;2023-02-01T04:33:01;5.70;;;3.10;;
67757;SDS011;54562;47.620;18.786;2023-02-01T04:36:09;5.90;;;3.30;;
67757;SDS011;54562;47.620;18.786;2023-02-01T04:39:15;6.50;;;3.20;;
67757;SDS011;54562;47.620;18.786;2023-02-01T04:42:20;5.60;;;3.00;;
67757;SDS011;54562;47.620;18.786;2023-02-01T04:45:25;5.00;;;2.60;;
67757;SDS011;54562;47.620;18.786;2023-02-01T04:48:30;6.70;;;3.50;;
67757;SDS011;54562;47.620;18.786;2023-02-01T04:51:35;6.60;;;3.30;;
67757;SDS011;54562;47.620;18.786;2023-02-01T04:54:40;5.80;;;3.00;;
67757;SDS011;54562;47.620;18.786;2023-02-01T04:57:45;5.90;;;3.00;;
67757;SDS011;54562;47.620;18.786;2023-02-01T05:00:50;5.80;;;2.80;;
67757;SDS011;54562;47.620;18.786;2023-02-01T05:03:55;5.40;;;2.70;;
67757;SDS011;54562;47.620;18.786;2023-02-01T05:07:01;5.50;;;2.70;;
67757;SDS011;54562;47.620;18.786;2023-02-01T05:10:09;6.00;;;3.00;;
67757;SDS011;54562;47.620;18.786;2023-02-01T05:13:15;5.90;;;3.00;;
67757;SDS011;54562;47.620;18.786;2023-02-01T05:16:38;6.40;;;3.20;;
67757;SDS011;54562;47.620;18.786;2023-02-01T05:19:43;6.30;;;2.80;;
67757;SDS011;54562;47.620;18.786;2023-02-01T05:22:48;5.50;;;2.90;;
67757;SDS011;54562;47.620;18.786;2023-02-01T05:25:59;5.50;;;2.80;;
67757;SDS011;54562;47.620;18.786;2023-02-01T05:29:05;6.70;;;3.30;;
67757;SDS011;54562;47.620;18.786;2023-02-01T05:32:11;5.50;;;3.00;;
67757;SDS011;54562;47.620;18.786;2023-02-01T05:35:25;6.40;;;2.70;;
67757;SDS011;54562;47.620;18.786;2023-02-01T05:38:30;6.30;;;3.10;;
67757;SDS011;54562;47.620;18.786;2023-02-01T05:41:35;6.70;;;2.80;;
67757;SDS011;54562;47.620;18.786;2023-02-01T05:44:40;5.30;;;2.70;;
67757;SDS011;54562;47.620;18.786;2023-02-01T05:47:45;5.70;;;2.80;;
67757;SDS011;54562;47.620;18.786;2023-02-01T05:50:50;6.30;;;3.10;;
67757;SDS011;54562;47.620;18.786;2023-02-01T05:53:55;7.30;;;3.80;;
67757;SDS011;54562;47.620;18.786;2023-02-01T05:57:00;7.10;;;3.10;;
67757;SDS011;54562;47.620;18.786;2023-02-01T06:00:08;6.60;;;3.50;;
67757;SDS011;54562;47.620;18.786;2023-02-01T06:03:15;6.30;;;3.30;;
67757;SDS011;54562;47.620;18.786;2023-02-01T06:06:20;6.10;;;3.20;;
67757;SDS011;54562;47.620;18.786;2023-02-01T06:09:26;6.20;;;3.10;;
67757;SDS011;54562;47.620;18.786;2023-02-01T06:12:31;7.30;;;3.50;;
67757;SDS011;54562;47.620;18.786;2023-02-01T06:15:36;6.40;;;3.30;;
67757;SDS011;54562;47.620;18.786;2023-02-01T06:18:42;6.20;;;3.40;;
67757;SDS011;54562;47.620;18.786;2023-02-01T06:21:47;5.80;;;3.20;;
67757;SDS011;54562;47.620;18.786;2023-02-01T06:24:52;6.20;;;3.40;;
67757;SDS011;54562;47.620;18.786;2023-02-01T06:28:00;6.00;;;3.30;;
67757;SDS011;54562;47.620;18.786;2023-02-01T06:31:09;6.40;;;3.40;;
67757;SDS011;54562;47.620;18.786;2023-02-01T06:34:15;7.10;;;3.60;;
67757;SDS011;54562;47.620;18.786;2023-02-01T06:37:24;7.60;;;4.30;;
67757;SDS011;54562;47.620;18.786;2023-02-01T06:40:30;7.90;;;3.60;;
67757;SDS011;54562;47.620;18.786;2023-02-01T06:43:36;5.90;;;3.50;;
67757;SDS011;54562;47.620;18.786;2023-02-01T06:46:41;6.80;;;3.60;;
67757;SDS011;54562;47.620;18.786;2023-02-01T06:49:47;6.80;;;3.30;;
67757;SDS011;54562;47.620;18.786;2023-02-01T06:52:52;6.10;;;3.20;;
67757;SDS011;54562;47.620;18.786;2023-02-01T06:55:58;6.20;;;3.60;;
67757;SDS011;54562;47.620;18.786;2023-02-01T06:59:05;6.50;;;3.60;;
67757;SDS011;54562;47.620;18.786;2023-02-01T07:02:11;5.70;;;3.40;;
67757;SDS011;54562;47.620;18.786;2023-02-01T07:05:17;10.10;;;4.10;;
67757;SDS011;54562;47.620;18.786;2023-02-01T07:08:22;12.10;;;4.50;;
67757;SDS011;54562;47.620;18.786;2023-02-01T07:11:27;7.70;;;4.30;;
67757;SDS011;54562;47.620;18.786;2023-02-01T07:14:32;8.00;;;3.70;;
67757;SDS011;54562;47.620;18.786;2023-02-01T07:17:37;7.90;;;4.10;;
67757;SDS011;54562;47.620;18.786;2023-02-01T07:20:42;7.30;;;3.50;;
67757;SDS011;54562;47.620;18.786;2023-02-01T07:23:53;8.80;;;5.20;;
67757;SDS011;54562;47.620;18.786;2023-02-01T07:26:58;6.40;;;3.40;;
67757;SDS011;54562;47.620;18.786;2023-02-01T07:30:04;6.70;;;3.60;;
67757;SDS011;54562;47.620;18.786;2023-02-01T07:33:11;7.30;;;3.50;;
67757;SDS011;54562;47.620;18.786;2023-02-01T07:36:17;5.70;;;3.10;;
67757;SDS011;54562;47.620;18.786;2023-02-01T07:39:22;6.90;;;3.60;;
67757;SDS011;54562;47.620;18.786;2023-02-01T07:42:27;5.90;;;3.20;;
67757;SDS011;54562;47.620;18.786;2023-02-01T07:45:33;11.50;;;3.20;;
67757;SDS011;54562;47.620;18.786;2023-02-01T07:48:39;6.50;;;3.30;;
67757;SDS011;54562;47.620;18.786;2023-02-01T07:51:45;6.80;;;3.50;;
67757;SDS011;54562;47.620;18.786;2023-02-01T07:54:50;6.20;;;2.90;;
67757;SDS011;54562;47.620;18.786;2023-02-01T07:57:58;6.00;;;3.00;;
67757;SDS011;54562;47.620;18.786;2023-02-01T08:01:03;5.90;;;3.00;;
67757;SDS011;54562;47.620;18.786;2023-02-01T08:04:24;6.50;;;3.00;;
67757;SDS011;54562;47.620;18.786;2023-02-01T08:07:30;7.80;;;3.40;;
67757;SDS011;54562;47.620;18.786;2023-02-01T08:10:35;6.00;;;2.90;;
67757;SDS011;54562;47.620;18.786;2023-02-01T08:13:40;8.60;;;2.90;;
67757;SDS011;54562;47.620;18.786;2023-02-01T08:16:46;6.60;;;3.30;;
67757;SDS011;54562;47.620;18.786;2023-02-01T08:19:51;7.00;;;3.60;;
67757;SDS011;54562;47.620;18.786;2023-02-01T08:22:56;7.50;;;3.20;;
67757;SDS011;54562;47.620;18.786;2023-02-01T08:26:11;5.30;;;2.80;;
67757;SDS011;54562;47.620;18.786;2023-02-01T08:29:18;6.40;;;3.20;;
67757;SDS011;54562;47.620;18.786;2023-02-01T08:32:23;7.40;;;3.20;;
67757;SDS011;54562;47.620;18.786;2023-02-01T08:35:29;8.50;;;3.20;;
67757;SDS011;54562;47.620;18.786;2023-02-01T08:38:46;5.90;;;2.80;;
67757;SDS011;54562;47.620;18.786;2023-02-01T08:41:52;6.80;;;3.30;;
67757;SDS011;54562;47.620;18.786;2023-02-01T08:48:16;7.20;;;3.60;;
67757;SDS011;54562;47.620;18.786;2023-02-01T08:51:23;6.40;;;3.50;;
67757;SDS011;54562;47.620;18.786;2023-02-01T08:54:28;7.60;;;3.10;;
67757;SDS011;54562;47.620;18.786;2023-02-01T08:57:34;7.50;;;3.60;;
67757;SDS011;54562;47.620;18.786;2023-02-01T09:00:39;10.80;;;5.10;;
67757;SDS011;54562;47.620;18.786;2023-02-01T09:03:44;15.80;;;8.90;;
67757;SDS011;54562;47.620;18.786;2023-02-01T09:06:49;18.30;;;10.80;;
67757;SDS011;54562;47.620;18.786;2023-02-01T09:09:54;15.30;;;9.70;;
67757;SDS011;54562;47.620;18.786;2023-02-01T09:13:03;9.20;;;5.40;;
67757;SDS011;54562;47.620;18.786;2023-02-01T09:16:08;8.10;;;3.80;;
67757;SDS011;54562;47.620;18.786;2023-02-01T09:19:13;8.80;;;5.70;;
67757;SDS011;54562;47.620;18.786;2023-02-01T09:22:29;8.70;;;5.00;;
67757;SDS011;54562;47.620;18.786;2023-02-01T09:25:36;8.10;;;4.70;;
67757;SDS011;54562;47.620;18.786;2023-02-01T09:28:42;9.80;;;5.50;;
67757;SDS011;54562;47.620;18.786;2023-02-01T09:31:47;11.00;;;5.90;;
67757;SDS011;54562;47.620;18.786;2023-02-01T09:35:07;9.90;;;4.90;;
67757;SDS011;54562;47.620;18.786;2023-02-01T09:38:13;8.80;;;4.90;;
67757;SDS011;54562;47.620;18.786;2023-02-01T09:41:31;8.10;;;4.70;;
67757;SDS011;54562;47.620;18.786;2023-02-01T09:44:52;8.90;;;4.70;;
67757;SDS011;54562;47.620;18.786;2023-02-01T09:48:13;7.50;;;3.80;;
67757;SDS011;54562;47.620;18.786;2023-02-01T09:51:23;8.20;;;3.20;;
67757;SDS011;54562;47.620;18.786;2023-02-01T09:54:40;7.00;;;3.60;;
67757;SDS011;54562;47.620;18.786;2023-02-01T09:57:53;6.30;;;3.60;;
67757;SDS011;54562;47.620;18.786;2023-02-01T10:01:05;8.00;;;3.70;;
67757;SDS011;54562;47.620;18.786;2023-02-01T10:04:18;6.40;;;3.40;;
67757;SDS011;54562;47.620;18.786;2023-02-01T10:07:30;6.50;;;3.50;;
67757;SDS011;54562;47.620;18.786;2023-02-01T10:10:46;5.90;;;3.10;;
67757;SDS011;54562;47.620;18.786;2023-02-01T10:13:56;6.80;;;3.00;;
67757;SDS011;54562;47.620;18.786;2023-02-01T10:17:12;8.30;;;3.50;;
67757;SDS011;54562;47.620;18.786;2023-02-01T10:20:33;7.00;;;3.50;;
67757;SDS011;54562;47.620;18.786;2023-02-01T10:24:06;6.30;;;3.10;;
67757;SDS011;54562;47.620;18.786;2023-02-01T10:27:34;5.40;;;2.80;;
67757;SDS011;54562;47.620;18.786;2023-02-01T10:30:45;5.30;;;2.70;;
67757;SDS011;54562;47.620;18.786;2023-02-01T10:33:55;6.10;;;3.10;;
67757;SDS011;54562;47.620;18.786;2023-02-01T10:37:07;6.60;;;3.20;;
67757;SDS011;54562;47.620;18.786;2023-02-01T10:40:23;8.30;;;3.50;;
67757;SDS011;54562;47.620;18.786;2023-02-01T10:43:30;8.80;;;4.10;;
67757;SDS011;54562;47.620;18.786;2023-02-01T10:46:37;6.80;;;3.50;;
67757;SDS011;54562;47.620;18.786;2023-02-01T10:49:47;6.50;;;3.50;;
67757;SDS011;54562;47.620;18.786;2023-02-01T10:53:02;6.70;;;3.30;;
67757;SDS011;54562;47.620;18.786;2023-02-01T10:56:14;7.30;;;3.50;;
67757;SDS011;54562;47.620;18.786;2023-02-01T10:59:29;7.80;;;3.90;;
67757;SDS011;54562;47.620;18.786;2023-02-01T11:02:36;7.70;;;3.80;;
67757;SDS011;54562;47.620;18.786;2023-02-01T11:05:45;9.80;;;4.70;;
67757;SDS011;54562;47.620;18.786;2023-02-01T11:08:53;7.10;;;4.00;;
67757;SDS011;54562;47.620;18.786;2023-02-01T11:12:00;12.50;;;5.20;;
67757;SDS011;54562;47.620;18.786;2023-02-01T11:15:19;8.40;;;4.70;;
67757;SDS011;54562;47.620;18.786;2023-02-01T11:18:30;10.00;;;4.80;;
67757;SDS011;54562;47.620;18.786;2023-02-01T11:21:36;9.00;;;5.00;;
67757;SDS011;54562;47.620;18.786;2023-02-01T11:24:45;10.20;;;5.70;;
67757;SDS011;54562;47.620;18.786;2023-02-01T11:27:53;9.90;;;5.50;;
67757;SDS011;54562;47.620;18.786;2023-02-01T11:31:02;9.50;;;5.50;;
67757;SDS011;54562;47.620;18.786;2023-02-01T11:34:14;9.40;;;5.00;;
67757;SDS011;54562;47.620;18.786;2023-02-01T11:37:27;10.00;;;5.50;;
67757;SDS011;54562;47.620;18.786;2023-02-01T11:40:37;10.20;;;5.90;;
67757;SDS011;54562;47.620;18.786;2023-02-01T11:43:54;10.30;;;5.90;;
67757;SDS011;54562;47.620;18.786;2023-02-01T11:47:19;10.80;;;6.30;;
67757;SDS011;54562;47.620;18.786;2023-02-01T11:50:34;12.00;;;6.30;;
67757;SDS011;54562;47.620;18.786;2023-02-01T11:54:01;9.90;;;5.70;;
67757;SDS011;54562;47.620;18.786;2023-02-01T11:57:27;11.70;;;5.80;;
67757;SDS011;54562;47.620;18.786;2023-02-01T12:00:55;8.00;;;5.10;;
67757;SDS011;54562;47.620;18.786;2023-02-01T12:08:11;9.50;;;4.80;;
67757;SDS011;54562;47.620;18.786;2023-02-01T12:11:48;8.90;;;5.30;;
67757;SDS011;54562;47.620;18.786;2023-02-01T12:22:20;8.00;;;4.50;;
67757;SDS011;54562;47.620;18.786;2023-02-01T12:25:54;8.20;;;4.70;;
67757;SDS011;54562;47.620;18.786;2023-02-01T12:29:27;9.10;;;4.80;;
67757;SDS011;54562;47.620;18.786;2023-02-01T12:32:53;8.40;;;4.40;;
67757;SDS011;54562;47.620;18.786;2023-02-01T12:36:13;8.80;;;5.00;;
67757;SDS011;54562;47.620;18.786;2023-02-01T12:39:38;9.50;;;5.00;;
67757;SDS011;54562;47.620;18.786;2023-02-01T12:42:59;8.00;;;4.40;;
67757;SDS011;54562;47.620;18.786;2023-02-01T12:46:12;10.10;;;5.20;;
67757;SDS011;54562;47.620;18.786;2023-02-01T12:49:23;7.40;;;4.40;;
67757;SDS011;54562;47.620;18.786;2023-02-01T12:52:39;9.40;;;4.50;;
67757;SDS011;54562;47.620;18.786;2023-02-01T12:55:49;7.70;;;4.20;;
67757;SDS011;54562;47.620;18.786;2023-02-01T13:02:15;7.80;;;3.70;;
67757;SDS011;54562;47.620;18.786;2023-02-01T13:05:30;7.70;;;3.90;;
67757;SDS011;54562;47.620;18.786;2023-02-01T13:08:48;7.60;;;4.00;;
67757;SDS011;54562;47.620;18.786;2023-02-01T13:15:21;8.00;;;4.20;;
67757;SDS011;54562;47.620;18.786;2023-02-01T13:18:46;10.40;;;4.80;;
67757;SDS011;54562;47.620;18.786;2023-02-01T13:21:57;8.10;;;4.50;;
67757;SDS011;54562;47.620;18.786;2023-02-01T13:25:15;8.20;;;3.90;;
67757;SDS011;54562;47.620;18.786;2023-02-01T13:28:27;7.00;;;3.60;;
67757;SDS011;54562;47.620;18.786;2023-02-01T13:32:05;8.20;;;3.90;;
67757;SDS011;54562;47.620;18.786;2023-02-01T13:36:28;6.80;;;3.30;;
67757;SDS011;54562;47.620;18.786;2023-02-01T13:40:07;6.20;;;3.00;;
67757;SDS011;54562;47.620;18.786;2023-02-01T13:43:29;7.10;;;3.10;;
67757;SDS011;54562;47.620;18.786;2023-02-01T13:46:54;9.00;;;3.80;;
67757;SDS011;54562;47.620;18.786;2023-02-01T13:50:19;9.10;;;4.00;;
67757;SDS011;54562;47.620;18.786;2023-02-01T13:53:30;9.40;;;4.00;;
67757;SDS011;54562;47.620;18.786;2023-02-01T13:56:50;8.40;;;4.00;;
67757;SDS011;54562;47.620;18.786;2023-02-01T14:00:06;6.30;;;3.30;;
67757;SDS011;54562;47.620;18.786;2023-02-01T14:03:44;6.90;;;3.30;;
67757;SDS011;54562;47.620;18.786;2023-02-01T14:06:52;7.30;;;3.10;;
67757;SDS011;54562;47.620;18.786;2023-02-01T14:13:54;5.10;;;2.70;;
67757;SDS011;54562;47.620;18.786;2023-02-01T14:20:43;5.30;;;2.20;;
67757;SDS011;54562;47.620;18.786;2023-02-01T14:23:59;6.60;;;2.90;;
67757;SDS011;54562;47.620;18.786;2023-02-01T14:27:20;6.60;;;2.70;;
67757;SDS011;54562;47.620;18.786;2023-02-01T14:30:28;7.60;;;3.00;;
67757;SDS011;54562;47.620;18.786;2023-02-01T14:33:33;6.90;;;3.20;;
67757;SDS011;54562;47.620;18.786;2023-02-01T14:36:42;7.00;;;2.40;;
67757;SDS011;54562;47.620;18.786;2023-02-01T14:39:55;6.00;;;2.40;;
67757;SDS011;54562;47.620;18.786;2023-02-01T14:43:04;5.70;;;2.60;;
67757;SDS011;54562;47.620;18.786;2023-02-01T14:53:30;4.50;;;2.10;;
67757;SDS011;54562;47.620;18.786;2023-02-01T14:56:38;5.50;;;2.70;;
67757;SDS011;54562;47.620;18.786;2023-02-01T14:59:45;6.30;;;2.80;;
67757;SDS011;54562;47.620;18.786;2023-02-01T15:02:54;5.40;;;2.50;;
67757;SDS011;54562;47.620;18.786;2023-02-01T15:06:13;7.10;;;3.10;;
67757;SDS011;54562;47.620;18.786;2023-02-01T15:09:27;10.80;;;4.30;;
67757;SDS011;54562;47.620;18.786;2023-02-01T15:12:40;6.30;;;3.40;;
67757;SDS011;54562;47.620;18.786;2023-02-01T15:16:00;5.50;;;2.80;;
67757;SDS011;54562;47.620;18.786;2023-02-01T15:19:13;5.70;;;2.70;;
67757;SDS011;54562;47.620;18.786;2023-02-01T15:22:19;5.90;;;3.00;;
67757;SDS011;54562;47.620;18.786;2023-02-01T15:25:26;6.90;;;3.00;;
67757;SDS011;54562;47.620;18.786;2023-02-01T15:28:35;7.50;;;3.40;;
67757;SDS011;54562;47.620;18.786;2023-02-01T15:31:41;6.20;;;3.20;;
67757;SDS011;54562;47.620;18.786;2023-02-01T15:34:49;29.10;;;10.70;;
67757;SDS011;54562;47.620;18.786;2023-02-01T15:38:34;19.20;;;7.80;;
67757;SDS011;54562;47.620;18.786;2023-02-01T15:41:42;7.30;;;3.60;;
67757;SDS011;54562;47.620;18.786;2023-02-01T15:44:49;6.80;;;3.50;;
67757;SDS011;54562;47.620;18.786;2023-02-01T15:47:56;5.90;;;2.70;;
67757;SDS011;54562;47.620;18.786;2023-02-01T15:51:02;6.10;;;2.70;;
67757;SDS011;54562;47.620;18.786;2023-02-01T15:54:14;4.40;;;2.20;;
67757;SDS011;54562;47.620;18.786;2023-02-01T15:57:25;4.60;;;2.10;;
67757;SDS011;54562;47.620;18.786;2023-02-01T16:00:43;6.00;;;2.60;;
67757;SDS011;54562;47.620;18.786;2023-02-01T16:03:49;4.90;;;2.50;;
67757;SDS011;54562;47.620;18.786;2023-02-01T16:07:27;7.50;;;2.70;;
67757;SDS011;54562;47.620;18.786;2023-02-01T16:10:39;6.50;;;2.70;;
67757;SDS011;54562;47.620;18.786;2023-02-01T16:13:45;6.50;;;2.80;;
67757;SDS011;54562;47.620;18.786;2023-02-01T16:16:51;7.00;;;3.10;;
67757;SDS011;54562;47.620;18.786;2023-02-01T16:19:57;5.90;;;2.60;;
67757;SDS011;54562;47.620;18.786;2023-02-01T16:23:04;6.30;;;2.60;;
67757;SDS011;54562;47.620;18.786;2023-02-01T16:26:10;6.40;;;2.90;;
67757;SDS011;54562;47.620;18.786;2023-02-01T16:29:15;7.30;;;3.00;;
67757;SDS011;54562;47.620;18.786;2023-02-01T16:32:20;5.70;;;2.60;;
67757;SDS011;54562;47.620;18.786;2023-02-01T16:35:28;5.90;;;3.00;;
67757;SDS011;54562;47.620;18.786;2023-02-01T16:38:38;6.50;;;2.90;;
67757;SDS011;54562;47.620;18.786;2023-02-01T16:41:44;6.60;;;3.30;;
67757;SDS011;54562;47.620;18.786;2023-02-01T16:44:49;7.40;;;3.80;;
67757;SDS011;54562;47.620;18.786;2023-02-01T16:47:55;8.80;;;4.40;;
67757;SDS011;54562;47.620;18.786;2023-02-01T16:51:03;10.30;;;3.90;;
67757;SDS011;54562;47.620;18.786;2023-02-01T16:54:13;7.30;;;3.50;;
67757;SDS011;54562;47.620;18.786;2023-02-01T16:57:19;6.00;;;3.00;;
67757;SDS011;54562;47.620;18.786;2023-02-01T17:00:27;6.30;;;3.20;;
67757;SDS011;54562;47.620;18.786;2023-02-01T17:03:34;6.50;;;3.00;;
67757;SDS011;54562;47.620;18.786;2023-02-01T17:06:39;7.10;;;3.40;;
67757;SDS011;54562;47.620;18.786;2023-02-01T17:09:45;7.00;;;3.30;;
67757;SDS011;54562;47.620;18.786;2023-02-01T17:12:50;7.80;;;3.90;;
67757;SDS011;54562;47.620;18.786;2023-02-01T17:15:59;9.30;;;3.70;;
67757;SDS011;54562;47.620;18.786;2023-02-01T17:19:08;7.60;;;3.60;;
67757;SDS011;54562;47.620;18.786;2023-02-01T17:22:17;13.00;;;5.60;;
67757;SDS011;54562;47.620;18.786;2023-02-01T17:25:22;15.20;;;5.90;;
67757;SDS011;54562;47.620;18.786;2023-02-01T17:28:29;10.70;;;5.30;;
67757;SDS011;54562;47.620;18.786;2023-02-01T17:31:38;9.30;;;3.90;;
67757;SDS011;54562;47.620;18.786;2023-02-01T17:34:45;9.10;;;4.40;;
67757;SDS011;54562;47.620;18.786;2023-02-01T17:37:50;8.10;;;4.10;;
67757;SDS011;54562;47.620;18.786;2023-02-01T17:40:57;9.80;;;3.90;;
67757;SDS011;54562;47.620;18.786;2023-02-01T17:44:02;8.00;;;3.40;;
67757;SDS011;54562;47.620;18.786;2023-02-01T17:47:08;7.60;;;3.20;;
67757;SDS011;54562;47.620;18.786;2023-02-01T17:50:14;6.30;;;2.50;;
67757;SDS011;54562;47.620;18.786;2023-02-01T17:53:21;6.30;;;2.90;;
67757;SDS011;54562;47.620;18.786;2023-02-01T17:56:27;5.50;;;2.50;;
67757;SDS011;54562;47.620;18.786;2023-02-01T17:59:32;5.50;;;2.60;;
67757;SDS011;54562;47.620;18.786;2023-02-01T18:02:37;6.00;;;2.40;;
67757;SDS011;54562;47.620;18.786;2023-02-01T18:05:42;6.00;;;2.90;;
67757;SDS011;54562;47.620;18.786;2023-02-01T18:08:53;5.10;;;2.40;;
67757;SDS011;54562;47.620;18.786;2023-02-01T18:11:58;5.80;;;2.60;;
67757;SDS011;54562;47.620;18.786;2023-02-01T18:15:14;4.20;;;2.20;;
67757;SDS011;54562;47.620;18.786;2023-02-01T18:18:21;5.60;;;2.40;;
67757;SDS011;54562;47.620;18.786;2023-02-01T18:21:27;6.20;;;3.00;;
67757;SDS011;54562;47.620;18.786;2023-02-01T18:24:37;7.50;;;3.40;;
67757;SDS011;54562;47.620;18.786;2023-02-01T18:27:42;5.70;;;2.80;;
67757;SDS011;54562;47.620;18.786;2023-02-01T18:30:49;6.60;;;2.80;;
67757;SDS011;54562;47.620;18.786;2023-02-01T18:33:56;7.80;;;3.60;;
67757;SDS011;54562;47.620;18.786;2023-02-01T18:37:02;9.40;;;3.90;;
67757;SDS011;54562;47.620;18.786;2023-02-01T18:40:11;19.00;;;3.70;;
67757;SDS011;54562;47.620;18.786;2023-02-01T18:43:20;6.60;;;3.00;;
67757;SDS011;54562;47.620;18.786;2023-02-01T18:46:25;8.20;;;2.90;;
67757;SDS011;54562;47.620;18.786;2023-02-01T18:49:31;7.70;;;3.00;;
67757;SDS011;54562;47.620;18.786;2023-02-01T18:52:39;7.50;;;2.70;;
67757;SDS011;54562;47.620;18.786;2023-02-01T18:55:45;5.50;;;2.60;;
67757;SDS011;54562;47.620;18.786;2023-02-01T18:58:50;4.80;;;2.40;;
67757;SDS011;54562;47.620;18.786;2023-02-01T19:01:55;6.30;;;2.80;;
67757;SDS011;54562;47.620;18.786;2023-02-01T19:05:00;5.40;;;2.30;;
67757;SDS011;54562;47.620;18.786;2023-02-01T19:08:08;5.80;;;2.40;;
67757;SDS011;54562;47.620;18.786;2023-02-01T19:11:14;5.00;;;2.40;;
67757;SDS011;54562;47.620;18.786;2023-02-01T19:14:19;5.60;;;2.50;;
67757;SDS011;54562;47.620;18.786;2023-02-01T19:17:26;5.70;;;2.30;;
67757;SDS011;54562;47.620;18.786;2023-02-01T19:20:31;6.30;;;2.70;;
67757;SDS011;54562;47.620;18.786;2023-02-01T19:23:39;5.20;;;2.70;;
67757;SDS011;54562;47.620;18.786;2023-02-01T19:26:45;5.80;;;3.00;;
67757;SDS011;54562;47.620;18.786;2023-02-01T19:29:52;5.70;;;2.90;;
67757;SDS011;54562;47.620;18.786;2023-02-01T19:32:57;5.80;;;3.00;;